sensor_id;sensor_type;location;lat;lon;timestamp;P1;durP1;ratioP1;P2;durP2;ratioP2
40355;SDS011;26061;50.044;19.930;2023-04-20T00:01:02;72.03;;;30.50;;
40355;SDS011;26061;50.044;19.930;2023-04-20T00:03:28;69.13;;;30.83;;
40355;SDS011;26061;50.044;19.930;2023-04-20T00:05:53;71.90;;;31.07;;
40355;SDS011;26061;50.044;19.930;2023-04-20T00:08:19;73.80;;;32.40;;
40355;SDS011;26061;50.044;19.930;2023-04-20T00:10:45;75.33;;;32.13;;
40355;SDS011;26061;50.044;19.930;2023-04-20T00:13:11;75.60;;;30.50;;
40355;SDS011;26061;50.044;19.930;2023-04-20T00:15:37;71.03;;;31.00;;
40355;SDS011;26061;50.044;19.930;2023-04-20T00:18:02;80.93;;;36.20;;
40355;SDS011;26061;50.044;19.930;2023-04-20T00:20:28;74.23;;;33.00;;
40355;SDS011;26061;50.044;19.930;2023-04-20T00:22:54;71.23;;;32.27;;
40355;SDS011;26061;50.044;19.930;2023-04-20T00:25:19;81.67;;;32.43;;
40355;SDS011;26061;50.044;19.930;2023-04-20T00:27:45;73.13;;;32.83;;
40355;SDS011;26061;50.044;19.930;2023-04-20T00:30:11;79.53;;;32.90;;
40355;SDS011;26061;50.044;19.930;2023-04-20T00:32:36;73.93;;;31.07;;
40355;SDS011;26061;50.044;19.930;2023-04-20T00:35:02;69.10;;;31.10;;
40355;SDS011;26061;50.044;19.930;2023-04-20T00:37:28;65.30;;;30.47;;
40355;SDS011;26061;50.044;19.930;2023-04-20T00:39:54;68.40;;;29.20;;
40355;SDS011;26061;50.044;19.930;2023-04-20T00:42:19;72.97;;;29.83;;
40355;SDS011;26061;50.044;19.930;2023-04-20T00:44:45;69.83;;;30.67;;
40355;SDS011;26061;50.044;19.930;2023-04-20T00:47:11;79.40;;;31.87;;
40355;SDS011;26061;50.044;19.930;2023-04-20T00:49:36;73.63;;;31.30;;
40355;SDS011;26061;50.044;19.930;2023-04-20T00:52:02;72.47;;;32.57;;
40355;SDS011;26061;50.044;19.930;2023-04-20T00:54:27;79.63;;;32.13;;
40355;SDS011;26061;50.044;19.930;2023-04-20T00:56:54;76.57;;;31.07;;
40355;SDS011;26061;50.044;19.930;2023-04-20T00:59:20;73.93;;;31.13;;
40355;SDS011;26061;50.044;19.930;2023-04-20T01:01:46;74.37;;;31.40;;
40355;SDS011;26061;50.044;19.930;2023-04-20T01:04:12;72.73;;;30.87;;
40355;SDS011;26061;50.044;19.930;2023-04-20T01:06:37;77.20;;;31.73;;
40355;SDS011;26061;50.044;19.930;2023-04-20T01:09:03;76.77;;;33.70;;
40355;SDS011;26061;50.044;19.930;2023-04-20T01:11:29;76.10;;;31.60;;
40355;SDS011;26061;50.044;19.930;2023-04-20T01:13:54;82.63;;;33.90;;
40355;SDS011;26061;50.044;19.930;2023-04-20T01:16:20;81.03;;;35.50;;
40355;SDS011;26061;50.044;19.930;2023-04-20T01:18:48;88.97;;;34.73;;
40355;SDS011;26061;50.044;19.930;2023-04-20T01:21:15;90.90;;;35.03;;
40355;SDS011;26061;50.044;19.930;2023-04-20T01:23:41;92.60;;;35.33;;
40355;SDS011;26061;50.044;19.930;2023-04-20T01:26:11;81.03;;;33.10;;
40355;SDS011;26061;50.044;19.930;2023-04-20T01:28:37;87.50;;;36.10;;
40355;SDS011;26061;50.044;19.930;2023-04-20T01:31:04;94.73;;;36.20;;
40355;SDS011;26061;50.044;19.930;2023-04-20T01:33:29;93.43;;;37.03;;
40355;SDS011;26061;50.044;19.930;2023-04-20T01:35:55;81.37;;;34.80;;
40355;SDS011;26061;50.044;19.930;2023-04-20T01:38:21;93.00;;;35.83;;
40355;SDS011;26061;50.044;19.930;2023-04-20T01:40:47;106.90;;;38.87;;
40355;SDS011;26061;50.044;19.930;2023-04-20T01:43:13;102.80;;;38.03;;
40355;SDS011;26061;50.044;19.930;2023-04-20T01:45:38;94.30;;;36.87;;
40355;SDS011;26061;50.044;19.930;2023-04-20T01:48:04;90.40;;;36.07;;
40355;SDS011;26061;50.044;19.930;2023-04-20T01:50:30;97.90;;;35.87;;
40355;SDS011;26061;50.044;19.930;2023-04-20T01:52:55;100.87;;;37.73;;
40355;SDS011;26061;50.044;19.930;2023-04-20T01:55:21;85.83;;;35.43;;
40355;SDS011;26061;50.044;19.930;2023-04-20T01:57:46;84.07;;;34.37;;
40355;SDS011;26061;50.044;19.930;2023-04-20T02:00:12;77.47;;;30.53;;
40355;SDS011;26061;50.044;19.930;2023-04-20T02:02:37;72.63;;;29.73;;
40355;SDS011;26061;50.044;19.930;2023-04-20T02:05:03;75.27;;;30.70;;
40355;SDS011;26061;50.044;19.930;2023-04-20T02:07:29;69.77;;;28.97;;
40355;SDS011;26061;50.044;19.930;2023-04-20T02:09:55;63.33;;;27.37;;
40355;SDS011;26061;50.044;19.930;2023-04-20T02:12:20;68.87;;;28.30;;
40355;SDS011;26061;50.044;19.930;2023-04-20T02:14:46;57.13;;;26.70;;
40355;SDS011;26061;50.044;19.930;2023-04-20T02:17:11;66.97;;;26.57;;
40355;SDS011;26061;50.044;19.930;2023-04-20T02:19:38;62.67;;;26.70;;
40355;SDS011;26061;50.044;19.930;2023-04-20T02:22:04;58.80;;;24.13;;
40355;SDS011;26061;50.044;19.930;2023-04-20T02:24:31;60.23;;;25.73;;
40355;SDS011;26061;50.044;19.930;2023-04-20T02:26:56;62.27;;;25.13;;
40355;SDS011;26061;50.044;19.930;2023-04-20T02:29:23;60.73;;;25.20;;
40355;SDS011;26061;50.044;19.930;2023-04-20T02:31:48;55.20;;;24.00;;
40355;SDS011;26061;50.044;19.930;2023-04-20T02:34:14;60.97;;;24.50;;
40355;SDS011;26061;50.044;19.930;2023-04-20T02:36:40;57.03;;;24.80;;
40355;SDS011;26061;50.044;19.930;2023-04-20T02:39:05;63.50;;;26.73;;
40355;SDS011;26061;50.044;19.930;2023-04-20T02:41:31;65.87;;;24.73;;
40355;SDS011;26061;50.044;19.930;2023-04-20T02:43:57;75.40;;;26.83;;
40355;SDS011;26061;50.044;19.930;2023-04-20T02:46:22;67.47;;;27.67;;
40355;SDS011;26061;50.044;19.930;2023-04-20T02:48:48;67.63;;;24.90;;
40355;SDS011;26061;50.044;19.930;2023-04-20T02:51:13;61.93;;;25.03;;
40355;SDS011;26061;50.044;19.930;2023-04-20T02:53:39;69.47;;;26.93;;
40355;SDS011;26061;50.044;19.930;2023-04-20T02:56:04;59.47;;;24.07;;
40355;SDS011;26061;50.044;19.930;2023-04-20T02:58:30;70.97;;;28.03;;
40355;SDS011;26061;50.044;19.930;2023-04-20T03:00:59;77.00;;;28.30;;
40355;SDS011;26061;50.044;19.930;2023-04-20T03:03:25;68.30;;;29.00;;
40355;SDS011;26061;50.044;19.930;2023-04-20T03:05:51;66.80;;;27.50;;
40355;SDS011;26061;50.044;19.930;2023-04-20T03:08:17;70.30;;;27.03;;
40355;SDS011;26061;50.044;19.930;2023-04-20T03:10:42;72.03;;;27.37;;
40355;SDS011;26061;50.044;19.930;2023-04-20T03:13:08;68.17;;;29.13;;
40355;SDS011;26061;50.044;19.930;2023-04-20T03:15:34;76.07;;;29.33;;
40355;SDS011;26061;50.044;19.930;2023-04-20T03:17:59;76.70;;;29.17;;
40355;SDS011;26061;50.044;19.930;2023-04-20T03:20:25;70.67;;;29.07;;
40355;SDS011;26061;50.044;19.930;2023-04-20T03:22:51;67.27;;;26.60;;
40355;SDS011;26061;50.044;19.930;2023-04-20T03:25:17;72.40;;;27.77;;
40355;SDS011;26061;50.044;19.930;2023-04-20T03:27:44;64.93;;;25.93;;
40355;SDS011;26061;50.044;19.930;2023-04-20T03:30:10;71.60;;;26.03;;
40355;SDS011;26061;50.044;19.930;2023-04-20T03:32:36;67.80;;;26.83;;
40355;SDS011;26061;50.044;19.930;2023-04-20T03:35:02;73.87;;;27.80;;
40355;SDS011;26061;50.044;19.930;2023-04-20T03:37:28;81.97;;;29.83;;
40355;SDS011;26061;50.044;19.930;2023-04-20T03:39:54;108.47;;;38.77;;
40355;SDS011;26061;50.044;19.930;2023-04-20T03:42:19;86.07;;;31.10;;
40355;SDS011;26061;50.044;19.930;2023-04-20T03:44:45;86.70;;;30.33;;
40355;SDS011;26061;50.044;19.930;2023-04-20T03:47:10;81.57;;;31.13;;
40355;SDS011;26061;50.044;19.930;2023-04-20T03:49:36;89.63;;;33.53;;
40355;SDS011;26061;50.044;19.930;2023-04-20T03:52:02;92.47;;;32.07;;
40355;SDS011;26061;50.044;19.930;2023-04-20T03:54:27;88.43;;;31.27;;
40355;SDS011;26061;50.044;19.930;2023-04-20T03:56:53;95.17;;;32.33;;
40355;SDS011;26061;50.044;19.930;2023-04-20T03:59:18;88.00;;;32.90;;
40355;SDS011;26061;50.044;19.930;2023-04-20T04:01:44;91.13;;;31.80;;
40355;SDS011;26061;50.044;19.930;2023-04-20T04:04:09;87.33;;;30.27;;
40355;SDS011;26061;50.044;19.930;2023-04-20T04:06:35;76.63;;;30.33;;
40355;SDS011;26061;50.044;19.930;2023-04-20T04:09:01;74.30;;;27.47;;
40355;SDS011;26061;50.044;19.930;2023-04-20T04:11:26;85.27;;;30.97;;
40355;SDS011;26061;50.044;19.930;2023-04-20T04:13:54;74.17;;;28.63;;
40355;SDS011;26061;50.044;19.930;2023-04-20T04:16:20;71.97;;;28.50;;
40355;SDS011;26061;50.044;19.930;2023-04-20T04:18:45;82.17;;;29.93;;
40355;SDS011;26061;50.044;19.930;2023-04-20T04:21:11;82.57;;;28.07;;
40355;SDS011;26061;50.044;19.930;2023-04-20T04:23:37;76.70;;;29.57;;
40355;SDS011;26061;50.044;19.930;2023-04-20T04:26:02;76.20;;;28.00;;
40355;SDS011;26061;50.044;19.930;2023-04-20T04:28:29;79.67;;;28.33;;
40355;SDS011;26061;50.044;19.930;2023-04-20T04:30:55;82.93;;;29.23;;
40355;SDS011;26061;50.044;19.930;2023-04-20T04:33:21;79.10;;;29.43;;
40355;SDS011;26061;50.044;19.930;2023-04-20T04:35:47;79.43;;;30.17;;
40355;SDS011;26061;50.044;19.930;2023-04-20T04:38:13;74.03;;;28.00;;
40355;SDS011;26061;50.044;19.930;2023-04-20T04:40:39;76.47;;;28.63;;
40355;SDS011;26061;50.044;19.930;2023-04-20T04:43:08;81.93;;;29.13;;
40355;SDS011;26061;50.044;19.930;2023-04-20T04:45:37;76.70;;;28.40;;
40355;SDS011;26061;50.044;19.930;2023-04-20T04:48:04;83.80;;;29.13;;
40355;SDS011;26061;50.044;19.930;2023-04-20T04:50:30;87.30;;;30.77;;
40355;SDS011;26061;50.044;19.930;2023-04-20T04:52:55;84.40;;;32.83;;
40355;SDS011;26061;50.044;19.930;2023-04-20T04:55:21;83.90;;;30.40;;
40355;SDS011;26061;50.044;19.930;2023-04-20T04:57:46;83.43;;;29.90;;
40355;SDS011;26061;50.044;19.930;2023-04-20T05:00:14;76.60;;;29.17;;
40355;SDS011;26061;50.044;19.930;2023-04-20T05:02:39;74.13;;;29.47;;
40355;SDS011;26061;50.044;19.930;2023-04-20T05:05:05;80.70;;;30.23;;
40355;SDS011;26061;50.044;19.930;2023-04-20T05:07:32;73.03;;;28.47;;
40355;SDS011;26061;50.044;19.930;2023-04-20T05:09:58;74.57;;;26.97;;
40355;SDS011;26061;50.044;19.930;2023-04-20T05:12:23;76.77;;;27.93;;
40355;SDS011;26061;50.044;19.930;2023-04-20T05:14:50;77.03;;;28.53;;
40355;SDS011;26061;50.044;19.930;2023-04-20T05:17:16;75.27;;;28.03;;
40355;SDS011;26061;50.044;19.930;2023-04-20T05:19:41;77.17;;;29.97;;
40355;SDS011;26061;50.044;19.930;2023-04-20T05:22:07;75.70;;;28.70;;
40355;SDS011;26061;50.044;19.930;2023-04-20T05:24:33;77.40;;;28.87;;
40355;SDS011;26061;50.044;19.930;2023-04-20T05:26:58;74.80;;;27.80;;
40355;SDS011;26061;50.044;19.930;2023-04-20T05:29:24;81.00;;;30.57;;
40355;SDS011;26061;50.044;19.930;2023-04-20T05:31:49;82.07;;;30.17;;
40355;SDS011;26061;50.044;19.930;2023-04-20T05:34:15;88.43;;;31.53;;
40355;SDS011;26061;50.044;19.930;2023-04-20T05:36:40;79.33;;;30.03;;
40355;SDS011;26061;50.044;19.930;2023-04-20T05:39:06;78.67;;;30.80;;
40355;SDS011;26061;50.044;19.930;2023-04-20T05:41:32;75.13;;;29.53;;
40355;SDS011;26061;50.044;19.930;2023-04-20T05:43:57;84.50;;;31.00;;
40355;SDS011;26061;50.044;19.930;2023-04-20T05:46:23;85.40;;;31.40;;
40355;SDS011;26061;50.044;19.930;2023-04-20T05:48:48;89.07;;;31.50;;
40355;SDS011;26061;50.044;19.930;2023-04-20T05:51:14;91.67;;;31.80;;
40355;SDS011;26061;50.044;19.930;2023-04-20T05:53:40;89.23;;;30.77;;
40355;SDS011;26061;50.044;19.930;2023-04-20T05:56:06;79.25;;;32.83;;
40355;SDS011;26061;50.044;19.930;2023-04-20T05:58:32;84.67;;;30.70;;
40355;SDS011;26061;50.044;19.930;2023-04-20T06:00:58;77.23;;;30.60;;
40355;SDS011;26061;50.044;19.930;2023-04-20T06:03:23;74.97;;;30.00;;
40355;SDS011;26061;50.044;19.930;2023-04-20T06:05:49;79.80;;;29.30;;
40355;SDS011;26061;50.044;19.930;2023-04-20T06:08:15;91.73;;;33.40;;
40355;SDS011;26061;50.044;19.930;2023-04-20T06:10:41;82.57;;;31.20;;
40355;SDS011;26061;50.044;19.930;2023-04-20T06:13:07;84.10;;;30.37;;
40355;SDS011;26061;50.044;19.930;2023-04-20T06:15:32;88.63;;;31.57;;
40355;SDS011;26061;50.044;19.930;2023-04-20T06:17:58;83.50;;;30.90;;
40355;SDS011;26061;50.044;19.930;2023-04-20T06:20:24;82.30;;;31.63;;
40355;SDS011;26061;50.044;19.930;2023-04-20T06:22:50;78.07;;;29.43;;
40355;SDS011;26061;50.044;19.930;2023-04-20T06:25:16;79.17;;;29.67;;
40355;SDS011;26061;50.044;19.930;2023-04-20T06:27:41;90.28;;;32.05;;
40355;SDS011;26061;50.044;19.930;2023-04-20T06:30:07;83.32;;;30.90;;
40355;SDS011;26061;50.044;19.930;2023-04-20T06:32:32;76.70;;;31.47;;
40355;SDS011;26061;50.044;19.930;2023-04-20T06:34:58;81.57;;;31.35;;
40355;SDS011;26061;50.044;19.930;2023-04-20T06:37:24;82.80;;;30.23;;
40355;SDS011;26061;50.044;19.930;2023-04-20T06:39:53;83.10;;;30.30;;
40355;SDS011;26061;50.044;19.930;2023-04-20T06:42:19;77.90;;;28.75;;
40355;SDS011;26061;50.044;19.930;2023-04-20T06:44:45;78.32;;;31.05;;
40355;SDS011;26061;50.044;19.930;2023-04-20T06:47:10;72.05;;;28.30;;
40355;SDS011;26061;50.044;19.930;2023-04-20T06:49:36;73.85;;;30.27;;
40355;SDS011;26061;50.044;19.930;2023-04-20T06:52:06;73.40;;;30.80;;
40355;SDS011;26061;50.044;19.930;2023-04-20T06:54:32;82.47;;;32.55;;
40355;SDS011;26061;50.044;19.930;2023-04-20T06:56:57;82.85;;;33.50;;
40355;SDS011;26061;50.044;19.930;2023-04-20T06:59:23;80.90;;;31.95;;
40355;SDS011;26061;50.044;19.930;2023-04-20T07:01:48;83.20;;;32.80;;
40355;SDS011;26061;50.044;19.930;2023-04-20T07:04:14;72.10;;;31.23;;
40355;SDS011;26061;50.044;19.930;2023-04-20T07:06:40;73.00;;;29.95;;
40355;SDS011;26061;50.044;19.930;2023-04-20T07:09:05;77.88;;;30.02;;
40355;SDS011;26061;50.044;19.930;2023-04-20T07:11:32;74.50;;;30.42;;
40355;SDS011;26061;50.044;19.930;2023-04-20T07:13:58;72.93;;;31.58;;
40355;SDS011;26061;50.044;19.930;2023-04-20T07:16:23;75.55;;;30.13;;
40355;SDS011;26061;50.044;19.930;2023-04-20T07:18:49;86.32;;;34.97;;
40355;SDS011;26061;50.044;19.930;2023-04-20T07:21:15;89.47;;;35.40;;
40355;SDS011;26061;50.044;19.930;2023-04-20T07:23:40;93.38;;;36.08;;
40355;SDS011;26061;50.044;19.930;2023-04-20T07:26:07;81.03;;;33.00;;
40355;SDS011;26061;50.044;19.930;2023-04-20T07:28:32;79.28;;;34.38;;
40355;SDS011;26061;50.044;19.930;2023-04-20T07:30:58;83.60;;;33.58;;
40355;SDS011;26061;50.044;19.930;2023-04-20T07:33:23;88.75;;;34.13;;
40355;SDS011;26061;50.044;19.930;2023-04-20T07:35:49;75.05;;;31.55;;
40355;SDS011;26061;50.044;19.930;2023-04-20T07:38:15;76.03;;;31.88;;
40355;SDS011;26061;50.044;19.930;2023-04-20T07:40:41;72.20;;;31.83;;
40355;SDS011;26061;50.044;19.930;2023-04-20T07:43:06;83.32;;;32.70;;
40355;SDS011;26061;50.044;19.930;2023-04-20T07:45:32;76.32;;;31.98;;
40355;SDS011;26061;50.044;19.930;2023-04-20T07:47:57;75.00;;;30.92;;
40355;SDS011;26061;50.044;19.930;2023-04-20T07:50:25;51.38;;;24.27;;
40355;SDS011;26061;50.044;19.930;2023-04-20T07:52:51;54.65;;;26.35;;
40355;SDS011;26061;50.044;19.930;2023-04-20T07:55:17;55.00;;;24.48;;
40355;SDS011;26061;50.044;19.930;2023-04-20T07:57:42;52.20;;;24.48;;
40355;SDS011;26061;50.044;19.930;2023-04-20T08:00:08;53.92;;;24.90;;
40355;SDS011;26061;50.044;19.930;2023-04-20T08:02:34;46.58;;;21.08;;
40355;SDS011;26061;50.044;19.930;2023-04-20T08:05:00;45.95;;;19.23;;
40355;SDS011;26061;50.044;19.930;2023-04-20T08:07:26;41.25;;;20.67;;
40355;SDS011;26061;50.044;19.930;2023-04-20T08:09:51;45.10;;;21.08;;
40355;SDS011;26061;50.044;19.930;2023-04-20T08:12:17;41.38;;;21.23;;
40355;SDS011;26061;50.044;19.930;2023-04-20T08:14:42;41.40;;;19.95;;
40355;SDS011;26061;50.044;19.930;2023-04-20T08:17:08;35.45;;;18.73;;
40355;SDS011;26061;50.044;19.930;2023-04-20T08:19:33;39.95;;;19.55;;
40355;SDS011;26061;50.044;19.930;2023-04-20T08:21:59;66.63;;;27.20;;
40355;SDS011;26061;50.044;19.930;2023-04-20T08:24:25;49.33;;;23.45;;
40355;SDS011;26061;50.044;19.930;2023-04-20T08:26:51;36.13;;;19.67;;
40355;SDS011;26061;50.044;19.930;2023-04-20T08:29:16;34.22;;;18.60;;
40355;SDS011;26061;50.044;19.930;2023-04-20T08:31:42;35.20;;;17.48;;
40355;SDS011;26061;50.044;19.930;2023-04-20T08:34:07;32.35;;;16.75;;
40355;SDS011;26061;50.044;19.930;2023-04-20T08:36:33;42.85;;;17.58;;
40355;SDS011;26061;50.044;19.930;2023-04-20T08:39:06;35.90;;;17.95;;
40355;SDS011;26061;50.044;19.930;2023-04-20T08:41:32;36.35;;;18.13;;
40355;SDS011;26061;50.044;19.930;2023-04-20T08:43:57;36.60;;;18.08;;
40355;SDS011;26061;50.044;19.930;2023-04-20T08:46:23;25.52;;;13.32;;
40355;SDS011;26061;50.044;19.930;2023-04-20T08:48:49;27.55;;;14.40;;
40355;SDS011;26061;50.044;19.930;2023-04-20T08:51:14;29.08;;;15.73;;
40355;SDS011;26061;50.044;19.930;2023-04-20T08:53:41;28.05;;;15.13;;
40355;SDS011;26061;50.044;19.930;2023-04-20T08:56:07;26.20;;;14.55;;
40355;SDS011;26061;50.044;19.930;2023-04-20T08:58:32;23.92;;;14.10;;
40355;SDS011;26061;50.044;19.930;2023-04-20T09:00:58;31.08;;;15.77;;
40355;SDS011;26061;50.044;19.930;2023-04-20T09:03:33;25.55;;;14.10;;
40355;SDS011;26061;50.044;19.930;2023-04-20T09:05:59;24.30;;;15.18;;
40355;SDS011;26061;50.044;19.930;2023-04-20T09:08:35;24.80;;;14.00;;
40355;SDS011;26061;50.044;19.930;2023-04-20T09:11:00;22.13;;;12.70;;
40355;SDS011;26061;50.044;19.930;2023-04-20T09:13:26;20.90;;;12.00;;
40355;SDS011;26061;50.044;19.930;2023-04-20T09:15:51;25.25;;;13.07;;
40355;SDS011;26061;50.044;19.930;2023-04-20T09:18:17;21.00;;;12.65;;
40355;SDS011;26061;50.044;19.930;2023-04-20T09:20:43;24.10;;;13.20;;
40355;SDS011;26061;50.044;19.930;2023-04-20T09:25:37;21.60;;;12.70;;
40355;SDS011;26061;50.044;19.930;2023-04-20T09:28:03;27.38;;;13.45;;
40355;SDS011;26061;50.044;19.930;2023-04-20T09:33:03;22.05;;;12.75;;
40355;SDS011;26061;50.044;19.930;2023-04-20T09:35:29;30.88;;;15.23;;
40355;SDS011;26061;50.044;19.930;2023-04-20T09:37:55;31.05;;;15.57;;
40355;SDS011;26061;50.044;19.930;2023-04-20T09:40:22;25.42;;;14.57;;
40355;SDS011;26061;50.044;19.930;2023-04-20T09:42:48;27.73;;;13.82;;
40355;SDS011;26061;50.044;19.930;2023-04-20T09:45:15;27.10;;;14.20;;
40355;SDS011;26061;50.044;19.930;2023-04-20T09:47:41;24.88;;;13.95;;
40355;SDS011;26061;50.044;19.930;2023-04-20T09:50:09;22.17;;;13.18;;
40355;SDS011;26061;50.044;19.930;2023-04-20T09:52:35;26.85;;;14.25;;
40355;SDS011;26061;50.044;19.930;2023-04-20T09:55:01;26.23;;;13.77;;
40355;SDS011;26061;50.044;19.930;2023-04-20T09:57:27;25.40;;;13.93;;
40355;SDS011;26061;50.044;19.930;2023-04-20T09:59:53;22.63;;;12.98;;
40355;SDS011;26061;50.044;19.930;2023-04-20T10:02:18;24.55;;;12.45;;
40355;SDS011;26061;50.044;19.930;2023-04-20T10:04:54;22.42;;;12.98;;
40355;SDS011;26061;50.044;19.930;2023-04-20T10:07:23;24.50;;;13.38;;
40355;SDS011;26061;50.044;19.930;2023-04-20T10:10:00;24.65;;;12.45;;
40355;SDS011;26061;50.044;19.930;2023-04-20T10:12:26;25.73;;;12.65;;
40355;SDS011;26061;50.044;19.930;2023-04-20T10:14:54;22.90;;;12.73;;
40355;SDS011;26061;50.044;19.930;2023-04-20T10:17:28;25.80;;;14.00;;
40355;SDS011;26061;50.044;19.930;2023-04-20T10:19:54;25.25;;;14.40;;
40355;SDS011;26061;50.044;19.930;2023-04-20T10:22:30;22.52;;;13.13;;
40355;SDS011;26061;50.044;19.930;2023-04-20T10:24:59;23.80;;;14.07;;
40355;SDS011;26061;50.044;19.930;2023-04-20T10:27:25;27.60;;;14.35;;
40355;SDS011;26061;50.044;19.930;2023-04-20T10:29:51;23.35;;;13.57;;
40355;SDS011;26061;50.044;19.930;2023-04-20T10:32:27;23.83;;;12.85;;
40355;SDS011;26061;50.044;19.930;2023-04-20T10:34:59;24.15;;;12.85;;
40355;SDS011;26061;50.044;19.930;2023-04-20T10:37:25;24.08;;;14.02;;
40355;SDS011;26061;50.044;19.930;2023-04-20T10:39:51;28.27;;;13.80;;
40355;SDS011;26061;50.044;19.930;2023-04-20T10:42:17;22.25;;;12.15;;
40355;SDS011;26061;50.044;19.930;2023-04-20T10:44:46;19.88;;;12.48;;
40355;SDS011;26061;50.044;19.930;2023-04-20T10:47:11;20.02;;;12.48;;
40355;SDS011;26061;50.044;19.930;2023-04-20T10:49:39;22.40;;;11.73;;
40355;SDS011;26061;50.044;19.930;2023-04-20T10:52:05;19.92;;;11.93;;
40355;SDS011;26061;50.044;19.930;2023-04-20T10:54:37;20.73;;;12.07;;
40355;SDS011;26061;50.044;19.930;2023-04-20T10:57:06;20.25;;;11.75;;
40355;SDS011;26061;50.044;19.930;2023-04-20T10:59:31;17.05;;;10.45;;
40355;SDS011;26061;50.044;19.930;2023-04-20T11:01:59;15.02;;;9.07;;
40355;SDS011;26061;50.044;19.930;2023-04-20T11:04:32;19.85;;;10.27;;
40355;SDS011;26061;50.044;19.930;2023-04-20T11:07:07;19.42;;;10.07;;
40355;SDS011;26061;50.044;19.930;2023-04-20T11:09:33;16.40;;;9.63;;
40355;SDS011;26061;50.044;19.930;2023-04-20T11:12:09;19.15;;;10.23;;
40355;SDS011;26061;50.044;19.930;2023-04-20T11:14:37;19.27;;;10.05;;
40355;SDS011;26061;50.044;19.930;2023-04-20T11:17:03;18.08;;;11.15;;
40355;SDS011;26061;50.044;19.930;2023-04-20T11:19:32;18.05;;;9.43;;
40355;SDS011;26061;50.044;19.930;2023-04-20T11:21:58;16.45;;;9.32;;
40355;SDS011;26061;50.044;19.930;2023-04-20T11:24:24;17.60;;;9.10;;
40355;SDS011;26061;50.044;19.930;2023-04-20T11:26:50;18.50;;;9.73;;
40355;SDS011;26061;50.044;19.930;2023-04-20T11:29:37;15.88;;;8.32;;
40355;SDS011;26061;50.044;19.930;2023-04-20T11:32:04;10.80;;;7.63;;
40355;SDS011;26061;50.044;19.930;2023-04-20T11:34:30;12.68;;;7.82;;
40355;SDS011;26061;50.044;19.930;2023-04-20T11:36:56;12.80;;;7.25;;
40355;SDS011;26061;50.044;19.930;2023-04-20T11:39:27;15.32;;;7.38;;
40355;SDS011;26061;50.044;19.930;2023-04-20T11:41:56;12.18;;;7.10;;
40355;SDS011;26061;50.044;19.930;2023-04-20T11:44:22;11.60;;;7.50;;
40355;SDS011;26061;50.044;19.930;2023-04-20T11:46:48;8.80;;;5.32;;
40355;SDS011;26061;50.044;19.930;2023-04-20T11:49:17;10.65;;;5.47;;
40355;SDS011;26061;50.044;19.930;2023-04-20T11:51:44;9.57;;;4.50;;
40355;SDS011;26061;50.044;19.930;2023-04-20T11:54:10;8.73;;;4.70;;
40355;SDS011;26061;50.044;19.930;2023-04-20T11:56:36;14.75;;;5.68;;
40355;SDS011;26061;50.044;19.930;2023-04-20T11:59:02;5.82;;;4.50;;
40355;SDS011;26061;50.044;19.930;2023-04-20T12:01:28;9.90;;;5.28;;
40355;SDS011;26061;50.044;19.930;2023-04-20T12:03:53;8.70;;;5.13;;
40355;SDS011;26061;50.044;19.930;2023-04-20T12:06:20;10.70;;;4.68;;
40355;SDS011;26061;50.044;19.930;2023-04-20T12:08:45;10.50;;;5.15;;
40355;SDS011;26061;50.044;19.930;2023-04-20T12:11:12;16.45;;;6.28;;
40355;SDS011;26061;50.044;19.930;2023-04-20T12:13:38;7.72;;;5.05;;
40355;SDS011;26061;50.044;19.930;2023-04-20T12:16:04;13.88;;;5.03;;
40355;SDS011;26061;50.044;19.930;2023-04-20T12:18:29;9.23;;;4.90;;
40355;SDS011;26061;50.044;19.930;2023-04-20T12:20:55;11.32;;;4.07;;
40355;SDS011;26061;50.044;19.930;2023-04-20T12:23:20;10.40;;;4.90;;
40355;SDS011;26061;50.044;19.930;2023-04-20T12:25:46;5.85;;;3.95;;
40355;SDS011;26061;50.044;19.930;2023-04-20T12:28:12;7.45;;;3.90;;
40355;SDS011;26061;50.044;19.930;2023-04-20T12:30:37;6.82;;;3.08;;
40355;SDS011;26061;50.044;19.930;2023-04-20T12:33:03;6.53;;;3.35;;
40355;SDS011;26061;50.044;19.930;2023-04-20T12:35:28;5.40;;;4.03;;
40355;SDS011;26061;50.044;19.930;2023-04-20T12:37:54;6.72;;;3.97;;
40355;SDS011;26061;50.044;19.930;2023-04-20T12:40:20;7.95;;;3.28;;
40355;SDS011;26061;50.044;19.930;2023-04-20T12:42:46;12.43;;;3.20;;
40355;SDS011;26061;50.044;19.930;2023-04-20T12:45:12;5.97;;;3.22;;
40355;SDS011;26061;50.044;19.930;2023-04-20T12:47:37;9.13;;;2.90;;
40355;SDS011;26061;50.044;19.930;2023-04-20T12:50:03;7.65;;;2.80;;
40355;SDS011;26061;50.044;19.930;2023-04-20T12:52:28;10.07;;;3.20;;
40355;SDS011;26061;50.044;19.930;2023-04-20T12:54:54;7.53;;;2.67;;
40355;SDS011;26061;50.044;19.930;2023-04-20T12:57:19;7.38;;;2.90;;
40355;SDS011;26061;50.044;19.930;2023-04-20T12:59:45;4.03;;;2.35;;
40355;SDS011;26061;50.044;19.930;2023-04-20T13:02:12;6.22;;;2.70;;
40355;SDS011;26061;50.044;19.930;2023-04-20T13:04:38;9.05;;;3.30;;
40355;SDS011;26061;50.044;19.930;2023-04-20T13:07:04;3.72;;;2.10;;
40355;SDS011;26061;50.044;19.930;2023-04-20T13:09:30;8.50;;;3.20;;
40355;SDS011;26061;50.044;19.930;2023-04-20T13:11:55;5.43;;;2.30;;
40355;SDS011;26061;50.044;19.930;2023-04-20T13:14:23;5.95;;;2.15;;
40355;SDS011;26061;50.044;19.930;2023-04-20T13:16:49;5.45;;;1.95;;
40355;SDS011;26061;50.044;19.930;2023-04-20T13:19:15;8.05;;;1.92;;
40355;SDS011;26061;50.044;19.930;2023-04-20T13:21:40;6.80;;;2.30;;
40355;SDS011;26061;50.044;19.930;2023-04-20T13:24:06;4.82;;;1.70;;
40355;SDS011;26061;50.044;19.930;2023-04-20T13:26:31;4.75;;;2.00;;
40355;SDS011;26061;50.044;19.930;2023-04-20T13:28:57;7.53;;;2.53;;
40355;SDS011;26061;50.044;19.930;2023-04-20T13:31:23;6.68;;;2.30;;
40355;SDS011;26061;50.044;19.930;2023-04-20T13:33:49;7.65;;;1.73;;
40355;SDS011;26061;50.044;19.930;2023-04-20T13:36:22;10.48;;;2.25;;
40355;SDS011;26061;50.044;19.930;2023-04-20T13:38:48;10.23;;;3.20;;
40355;SDS011;26061;50.044;19.930;2023-04-20T13:41:14;6.80;;;2.78;;
40355;SDS011;26061;50.044;19.930;2023-04-20T13:43:39;6.53;;;2.30;;
40355;SDS011;26061;50.044;19.930;2023-04-20T13:46:05;3.83;;;1.90;;
40355;SDS011;26061;50.044;19.930;2023-04-20T13:48:31;9.05;;;2.17;;
40355;SDS011;26061;50.044;19.930;2023-04-20T13:50:56;11.45;;;2.72;;
40355;SDS011;26061;50.044;19.930;2023-04-20T13:53:22;5.13;;;1.92;;
40355;SDS011;26061;50.044;19.930;2023-04-20T13:55:47;9.80;;;2.55;;
40355;SDS011;26061;50.044;19.930;2023-04-20T13:58:14;6.97;;;2.22;;
40355;SDS011;26061;50.044;19.930;2023-04-20T14:00:40;10.93;;;3.85;;
40355;SDS011;26061;50.044;19.930;2023-04-20T14:03:07;5.53;;;2.45;;
40355;SDS011;26061;50.044;19.930;2023-04-20T14:05:32;6.57;;;2.20;;
40355;SDS011;26061;50.044;19.930;2023-04-20T14:07:58;16.23;;;3.83;;
40355;SDS011;26061;50.044;19.930;2023-04-20T14:10:26;18.38;;;5.97;;
40355;SDS011;26061;50.044;19.930;2023-04-20T14:12:51;8.45;;;3.25;;